sensor_id;sensor_type;location;lat;lon;timestamp;pressure;altitude;pressure_sealevel;temperature;humidity
77207;BME280;66190;50.708;7.906;2023-11-19T00:00:06;96016.75;;;8.20;100.00
77207;BME280;66190;50.708;7.906;2023-11-19T00:02:36;96014.13;;;8.26;100.00
77207;BME280;66190;50.708;7.906;2023-11-19T00:05:02;96030.00;;;8.28;100.00
77207;BME280;66190;50.708;7.906;2023-11-19T00:07:27;96037.03;;;8.29;100.00
77207;BME280;66190;50.708;7.906;2023-11-19T00:09:52;96009.19;;;8.30;100.00
77207;BME280;66190;50.708;7.906;2023-11-19T00:12:20;96003.63;;;8.31;100.00
77207;BME280;66190;50.708;7.906;2023-11-19T00:14:46;96006.31;;;8.31;100.00
77207;BME280;66190;50.708;7.906;2023-11-19T00:17:11;96010.03;;;8.30;100.00
77207;BME280;66190;50.708;7.906;2023-11-19T00:19:36;96005.47;;;8.31;100.00
77207;BME280;66190;50.708;7.906;2023-11-19T00:22:02;96011.03;;;8.29;100.00
77207;BME280;66190;50.708;7.906;2023-11-19T00:24:28;95998.47;;;8.30;100.00
77207;BME280;66190;50.708;7.906;2023-11-19T00:26:53;96012.72;;;8.30;100.00
77207;BME280;66190;50.708;7.906;2023-11-19T00:29:19;95996.63;;;8.30;100.00
77207;BME280;66190;50.708;7.906;2023-11-19T00:31:45;95984.66;;;8.33;100.00
77207;BME280;66190;50.708;7.906;2023-11-19T00:34:11;95970.69;;;8.37;100.00
77207;BME280;66190;50.708;7.906;2023-11-19T00:36:36;95970.88;;;8.36;100.00
77207;BME280;66190;50.708;7.906;2023-11-19T00:39:01;95963.66;;;8.43;100.00
77207;BME280;66190;50.708;7.906;2023-11-19T00:41:27;95971.31;;;8.46;100.00
77207;BME280;66190;50.708;7.906;2023-11-19T00:43:52;95971.28;;;8.39;100.00
77207;BME280;66190;50.708;7.906;2023-11-19T00:46:18;95971.91;;;8.41;100.00
77207;BME280;66190;50.708;7.906;2023-11-19T00:48:43;95968.59;;;8.39;100.00
77207;BME280;66190;50.708;7.906;2023-11-19T00:51:11;95967.78;;;8.39;100.00
77207;BME280;66190;50.708;7.906;2023-11-19T00:53:37;95958.13;;;8.44;100.00
77207;BME280;66190;50.708;7.906;2023-11-19T00:56:02;95950.09;;;8.44;100.00
77207;BME280;66190;50.708;7.906;2023-11-19T00:58:28;95954.41;;;8.45;100.00
77207;BME280;66190;50.708;7.906;2023-11-19T01:00:53;95937.47;;;8.45;100.00
77207;BME280;66190;50.708;7.906;2023-11-19T01:03:18;95944.50;;;8.46;100.00
77207;BME280;66190;50.708;7.906;2023-11-19T01:05:44;95937.69;;;8.43;100.00
77207;BME280;66190;50.708;7.906;2023-11-19T01:08:12;95936.69;;;8.44;100.00
77207;BME280;66190;50.708;7.906;2023-11-19T01:10:37;95936.91;;;8.49;100.00
77207;BME280;66190;50.708;7.906;2023-11-19T01:13:03;95941.00;;;8.52;100.00
77207;BME280;66190;50.708;7.906;2023-11-19T01:15:31;95950.09;;;8.51;100.00
77207;BME280;66190;50.708;7.906;2023-11-19T01:17:56;95937.94;;;8.55;100.00
77207;BME280;66190;50.708;7.906;2023-11-19T01:20:22;95944.13;;;8.55;100.00
77207;BME280;66190;50.708;7.906;2023-11-19T01:22:47;95951.94;;;8.57;100.00
77207;BME280;66190;50.708;7.906;2023-11-19T01:25:13;95938.16;;;8.60;100.00
77207;BME280;66190;50.708;7.906;2023-11-19T01:27:39;95935.91;;;8.63;100.00
77207;BME280;66190;50.708;7.906;2023-11-19T01:30:05;95939.16;;;8.59;100.00
77207;BME280;66190;50.708;7.906;2023-11-19T01:32:31;95925.97;;;8.64;100.00
77207;BME280;66190;50.708;7.906;2023-11-19T01:34:57;95936.69;;;8.64;100.00
77207;BME280;66190;50.708;7.906;2023-11-19T01:37:22;95932.81;;;8.66;100.00
77207;BME280;66190;50.708;7.906;2023-11-19T01:39:48;95931.38;;;8.70;100.00
77207;BME280;66190;50.708;7.906;2023-11-19T01:42:13;95937.53;;;8.71;100.00
77207;BME280;66190;50.708;7.906;2023-11-19T01:44:39;95929.28;;;8.72;100.00
77207;BME280;66190;50.708;7.906;2023-11-19T01:47:04;95929.50;;;8.71;100.00
77207;BME280;66190;50.708;7.906;2023-11-19T01:49:32;95920.03;;;8.75;100.00
77207;BME280;66190;50.708;7.906;2023-11-19T01:51:58;95918.38;;;8.74;100.00
77207;BME280;66190;50.708;7.906;2023-11-19T01:54:25;95916.28;;;8.76;100.00
77207;BME280;66190;50.708;7.906;2023-11-19T01:56:52;95907.66;;;8.80;100.00
77207;BME280;66190;50.708;7.906;2023-11-19T01:59:18;95911.13;;;8.81;100.00
77207;BME280;66190;50.708;7.906;2023-11-19T02:01:51;95910.97;;;8.82;100.00
77207;BME280;66190;50.708;7.906;2023-11-19T02:04:17;95907.88;;;8.85;100.00
77207;BME280;66190;50.708;7.906;2023-11-19T02:06:43;95907.44;;;8.88;100.00
77207;BME280;66190;50.708;7.906;2023-11-19T02:09:08;95904.75;;;8.88;100.00
77207;BME280;66190;50.708;7.906;2023-11-19T02:11:34;95909.91;;;8.90;100.00
77207;BME280;66190;50.708;7.906;2023-11-19T02:14:01;95888.88;;;8.93;100.00
77207;BME280;66190;50.708;7.906;2023-11-19T02:16:27;95888.06;;;8.93;100.00
77207;BME280;66190;50.708;7.906;2023-11-19T02:18:53;95893.22;;;8.94;100.00
77207;BME280;66190;50.708;7.906;2023-11-19T02:21:19;95888.06;;;8.99;100.00
77207;BME280;66190;50.708;7.906;2023-11-19T02:23:44;95893.84;;;8.96;100.00
77207;BME280;66190;50.708;7.906;2023-11-19T02:26:14;95890.94;;;8.98;100.00
77207;BME280;66190;50.708;7.906;2023-11-19T02:28:43;95888.06;;;8.99;100.00
77207;BME280;66190;50.708;7.906;2023-11-19T02:31:09;95892.16;;;9.02;100.00
77207;BME280;66190;50.708;7.906;2023-11-19T02:33:35;95893.41;;;9.06;100.00
77207;BME280;66190;50.708;7.906;2023-11-19T02:36:02;95900.44;;;9.07;100.00
77207;BME280;66190;50.708;7.906;2023-11-19T02:38:29;95900.25;;;9.08;100.00
77207;BME280;66190;50.708;7.906;2023-11-19T02:40:56;95892.59;;;9.12;100.00
77207;BME280;66190;50.708;7.906;2023-11-19T02:43:21;95895.06;;;9.07;100.00
77207;BME280;66190;50.708;7.906;2023-11-19T02:45:47;95887.41;;;9.10;100.00
77207;BME280;66190;50.708;7.906;2023-11-19T02:48:12;95888.66;;;9.14;100.00
77207;BME280;66190;50.708;7.906;2023-11-19T02:50:39;95867.84;;;9.10;100.00
77207;BME280;66190;50.708;7.906;2023-11-19T02:53:04;95871.72;;;9.14;100.00
77207;BME280;66190;50.708;7.906;2023-11-19T02:55:31;95861.22;;;9.12;100.00
77207;BME280;66190;50.708;7.906;2023-11-19T02:58:02;95875.03;;;9.16;100.00
77207;BME280;66190;50.708;7.906;2023-11-19T03:00:33;95865.75;;;9.25;100.00
77207;BME280;66190;50.708;7.906;2023-11-19T03:03:02;95861.81;;;9.28;100.00
77207;BME280;66190;50.708;7.906;2023-11-19T03:05:42;95862.03;;;9.33;100.00
77207;BME280;66190;50.708;7.906;2023-11-19T03:08:09;95872.53;;;9.34;100.00
77207;BME280;66190;50.708;7.906;2023-11-19T03:10:35;95869.00;;;9.40;100.00
77207;BME280;66190;50.708;7.906;2023-11-19T03:13:00;95863.66;;;9.47;100.00
77207;BME280;66190;50.708;7.906;2023-11-19T03:15:27;95871.28;;;9.50;100.00
77207;BME280;66190;50.708;7.906;2023-11-19T03:17:52;95875.78;;;9.56;100.00
77207;BME280;66190;50.708;7.906;2023-11-19T03:20:19;95868.75;;;9.61;100.00
77207;BME280;66190;50.708;7.906;2023-11-19T03:22:46;95868.75;;;9.61;100.00
77207;BME280;66190;50.708;7.906;2023-11-19T03:25:11;95867.94;;;9.67;100.00
77207;BME280;66190;50.708;7.906;2023-11-19T03:27:37;95871.41;;;9.68;100.00
77207;BME280;66190;50.708;7.906;2023-11-19T03:30:12;95860.50;;;9.69;100.00
77207;BME280;66190;50.708;7.906;2023-11-19T03:32:38;95862.78;;;9.66;100.00
77207;BME280;66190;50.708;7.906;2023-11-19T03:35:04;95856.56;;;9.65;100.00
77207;BME280;66190;50.708;7.906;2023-11-19T03:37:32;95848.50;;;9.65;100.00
77207;BME280;66190;50.708;7.906;2023-11-19T03:39:58;95861.94;;;9.65;100.00
77207;BME280;66190;50.708;7.906;2023-11-19T03:42:28;95855.31;;;9.68;100.00
77207;BME280;66190;50.708;7.906;2023-11-19T03:44:54;95858.59;;;9.70;100.00
77207;BME280;66190;50.708;7.906;2023-11-19T03:47:20;95854.06;;;9.70;100.00
77207;BME280;66190;50.708;7.906;2023-11-19T03:49:49;95849.53;;;9.71;100.00
77207;BME280;66190;50.708;7.906;2023-11-19T03:52:15;95852.22;;;9.71;100.00
77207;BME280;66190;50.708;7.906;2023-11-19T03:54:41;95844.78;;;9.73;100.00
77207;BME280;66190;50.708;7.906;2023-11-19T03:57:06;95840.63;;;9.70;100.00
77207;BME280;66190;50.708;7.906;2023-11-19T03:59:32;95853.63;;;9.73;100.00
77207;BME280;66190;50.708;7.906;2023-11-19T04:01:58;95848.47;;;9.72;100.00
77207;BME280;66190;50.708;7.906;2023-11-19T04:04:26;95841.69;;;9.69;100.00
77207;BME280;66190;50.708;7.906;2023-11-19T04:06:52;95842.69;;;9.68;100.00
77207;BME280;66190;50.708;7.906;2023-11-19T04:09:17;95843.53;;;9.69;100.00
77207;BME280;66190;50.708;7.906;2023-11-19T04:11:43;95838.38;;;9.67;100.00
77207;BME280;66190;50.708;7.906;2023-11-19T04:14:08;95840.44;;;9.65;100.00
77207;BME280;66190;50.708;7.906;2023-11-19T04:16:35;95845.00;;;9.65;100.00
77207;BME280;66190;50.708;7.906;2023-11-19T04:19:00;95845.59;;;9.67;100.00
77207;BME280;66190;50.708;7.906;2023-11-19T04:21:26;95857.63;;;9.64;100.00
77207;BME280;66190;50.708;7.906;2023-11-19T04:23:52;95852.84;;;9.66;100.00
77207;BME280;66190;50.708;7.906;2023-11-19T04:26:17;95847.47;;;9.66;100.00
77207;BME280;66190;50.708;7.906;2023-11-19T04:28:42;95857.19;;;9.67;100.00
77207;BME280;66190;50.708;7.906;2023-11-19T04:31:08;95847.06;;;9.69;100.00
77207;BME280;66190;50.708;7.906;2023-11-19T04:33:34;95850.34;;;9.71;100.00
77207;BME280;66190;50.708;7.906;2023-11-19T04:36:00;95854.69;;;9.72;100.00
77207;BME280;66190;50.708;7.906;2023-11-19T04:38:25;95850.56;;;9.76;100.00
77207;BME280;66190;50.708;7.906;2023-11-19T04:40:52;95846.41;;;9.74;100.00
77207;BME280;66190;50.708;7.906;2023-11-19T04:43:17;95844.97;;;9.78;100.00
77207;BME280;66190;50.708;7.906;2023-11-19T04:45:42;95845.56;;;9.80;100.00
77207;BME280;66190;50.708;7.906;2023-11-19T04:48:08;95850.13;;;9.79;100.00
77207;BME280;66190;50.708;7.906;2023-11-19T04:50:34;95832.72;;;9.82;100.00
77207;BME280;66190;50.708;7.906;2023-11-19T04:52:59;95837.09;;;9.83;100.00
77207;BME280;66190;50.708;7.906;2023-11-19T04:55:25;95838.72;;;9.84;100.00
77207;BME280;66190;50.708;7.906;2023-11-19T04:57:50;95846.78;;;9.84;100.00
77207;BME280;66190;50.708;7.906;2023-11-19T05:00:16;95845.16;;;9.83;100.00
77207;BME280;66190;50.708;7.906;2023-11-19T05:02:41;95843.28;;;9.83;100.00
77207;BME280;66190;50.708;7.906;2023-11-19T05:05:06;95844.94;;;9.84;100.00
77207;BME280;66190;50.708;7.906;2023-11-19T05:07:32;95846.56;;;9.85;100.00
77207;BME280;66190;50.708;7.906;2023-11-19T05:09:58;95848.03;;;9.81;100.00
77207;BME280;66190;50.708;7.906;2023-11-19T05:12:23;95852.97;;;9.84;100.00
77207;BME280;66190;50.708;7.906;2023-11-19T05:14:49;95841.81;;;9.87;100.00
77207;BME280;66190;50.708;7.906;2023-11-19T05:17:18;95850.69;;;9.88;100.00
77207;BME280;66190;50.708;7.906;2023-11-19T05:19:44;95848.63;;;9.90;100.00
77207;BME280;66190;50.708;7.906;2023-11-19T05:22:10;95846.56;;;9.92;100.00
77207;BME280;66190;50.708;7.906;2023-11-19T05:24:35;95854.63;;;9.92;100.00
77207;BME280;66190;50.708;7.906;2023-11-19T05:27:01;95863.09;;;9.95;100.00
77207;BME280;66190;50.708;7.906;2023-11-19T05:29:27;95854.59;;;9.98;100.00
77207;BME280;66190;50.708;7.906;2023-11-19T05:31:52;95852.91;;;9.97;100.00
77207;BME280;66190;50.708;7.906;2023-11-19T05:34:17;95857.50;;;9.97;100.00
77207;BME280;66190;50.708;7.906;2023-11-19T05:36:43;95851.91;;;9.98;100.00
77207;BME280;66190;50.708;7.906;2023-11-19T05:39:08;95857.88;;;10.00;100.00
77207;BME280;66190;50.708;7.906;2023-11-19T05:41:34;95863.03;;;10.02;100.00
77207;BME280;66190;50.708;7.906;2023-11-19T05:43:59;95876.31;;;9.97;100.00
77207;BME280;66190;50.708;7.906;2023-11-19T05:46:25;95869.25;;;9.96;100.00
77207;BME280;66190;50.708;7.906;2023-11-19T05:48:52;95881.06;;;9.95;100.00
77207;BME280;66190;50.708;7.906;2023-11-19T05:51:18;95879.38;;;9.94;100.00
77207;BME280;66190;50.708;7.906;2023-11-19T05:53:43;95882.91;;;9.94;100.00
77207;BME280;66190;50.708;7.906;2023-11-19T05:56:10;95878.59;;;9.93;100.00
77207;BME280;66190;50.708;7.906;2023-11-19T05:58:36;95889.16;;;9.88;100.00
77207;BME280;66190;50.708;7.906;2023-11-19T06:01:02;95902.59;;;9.88;100.00
77207;BME280;66190;50.708;7.906;2023-11-19T06:03:28;95891.44;;;9.85;100.00
77207;BME280;66190;50.708;7.906;2023-11-19T06:05:54;95896.41;;;9.81;100.00
77207;BME280;66190;50.708;7.906;2023-11-19T06:08:20;95895.56;;;9.81;100.00
77207;BME280;66190;50.708;7.906;2023-11-19T06:10:46;95892.66;;;9.82;100.00
77207;BME280;66190;50.708;7.906;2023-11-19T06:13:14;95879.06;;;9.77;100.00
77207;BME280;66190;50.708;7.906;2023-11-19T06:15:43;95890.63;;;9.78;100.00
77207;BME280;66190;50.708;7.906;2023-11-19T06:18:08;95890.00;;;9.76;100.00
77207;BME280;66190;50.708;7.906;2023-11-19T06:20:35;95897.84;;;9.77;100.00
77207;BME280;66190;50.708;7.906;2023-11-19T06:23:00;95895.59;;;9.74;100.00
77207;BME280;66190;50.708;7.906;2023-11-19T06:25:26;95893.53;;;9.76;100.00
77207;BME280;66190;50.708;7.906;2023-11-19T06:27:52;95907.97;;;9.75;100.00
77207;BME280;66190;50.708;7.906;2023-11-19T06:30:18;95899.09;;;9.75;100.00
77207;BME280;66190;50.708;7.906;2023-11-19T06:32:43;95904.69;;;9.73;100.00
77207;BME280;66190;50.708;7.906;2023-11-19T06:35:09;95896.63;;;9.73;100.00
77207;BME280;66190;50.708;7.906;2023-11-19T06:37:39;95894.53;;;9.75;100.00
77207;BME280;66190;50.708;7.906;2023-11-19T06:40:05;95893.72;;;9.75;100.00
77207;BME280;66190;50.708;7.906;2023-11-19T06:42:31;95899.31;;;9.73;100.00
77207;BME280;66190;50.708;7.906;2023-11-19T06:44:56;95894.16;;;9.72;100.00
77207;BME280;66190;50.708;7.906;2023-11-19T06:47:26;95899.09;;;9.75;100.00
77207;BME280;66190;50.708;7.906;2023-11-19T06:49:52;95909.03;;;9.74;100.00
77207;BME280;66190;50.708;7.906;2023-11-19T06:52:17;95900.53;;;9.77;100.00
77207;BME280;66190;50.708;7.906;2023-11-19T06:54:43;95911.50;;;9.76;100.00
77207;BME280;66190;50.708;7.906;2023-11-19T06:57:08;95912.34;;;9.76;100.00
77207;BME280;66190;50.708;7.906;2023-11-19T06:59:34;95912.34;;;9.76;100.00
77207;BME280;66190;50.708;7.906;2023-11-19T07:02:00;95923.06;;;9.76;100.00
77207;BME280;66190;50.708;7.906;2023-11-19T07:04:25;95908.59;;;9.77;100.00
77207;BME280;66190;50.708;7.906;2023-11-19T07:06:50;95930.53;;;9.74;100.00
77207;BME280;66190;50.708;7.906;2023-11-19T07:09:18;95926.34;;;9.78;100.00
77207;BME280;66190;50.708;7.906;2023-11-19T07:11:44;95922.66;;;9.79;100.00
77207;BME280;66190;50.708;7.906;2023-11-19T07:14:11;95924.28;;;9.80;100.00
77207;BME280;66190;50.708;7.906;2023-11-19T07:16:37;95927.84;;;9.74;100.00
77207;BME280;66190;50.708;7.906;2023-11-19T07:19:04;95931.13;;;9.76;100.00
77207;BME280;66190;50.708;7.906;2023-11-19T07:21:33;95926.16;;;9.73;100.00
77207;BME280;66190;50.708;7.906;2023-11-19T07:23:59;95933.81;;;9.76;100.00
77207;BME280;66190;50.708;7.906;2023-11-19T07:26:24;95926.16;;;9.73;100.00
77207;BME280;66190;50.708;7.906;2023-11-19T07:28:50;95942.47;;;9.78;100.00
77207;BME280;66190;50.708;7.906;2023-11-19T07:31:16;95945.78;;;9.80;100.00
77207;BME280;66190;50.708;7.906;2023-11-19T07:33:44;95940.00;;;9.83;100.00
77207;BME280;66190;50.708;7.906;2023-11-19T07:36:12;95923.47;;;9.80;100.00
77207;BME280;66190;50.708;7.906;2023-11-19T07:38:37;95933.59;;;9.78;100.00
77207;BME280;66190;50.708;7.906;2023-11-19T07:41:04;95931.72;;;9.85;100.00
77207;BME280;66190;50.708;7.906;2023-11-19T07:43:30;95930.69;;;9.86;100.00
77207;BME280;66190;50.708;7.906;2023-11-19T07:45:56;95946.19;;;9.84;100.00
77207;BME280;66190;50.708;7.906;2023-11-19T07:48:21;95942.47;;;9.91;100.00
77207;BME280;66190;50.708;7.906;2023-11-19T07:50:49;95951.13;;;9.93;100.00
77207;BME280;66190;50.708;7.906;2023-11-19T07:53:17;95943.69;;;9.95;100.00
77207;BME280;66190;50.708;7.906;2023-11-19T07:55:43;95951.75;;;9.95;100.00
77207;BME280;66190;50.708;7.906;2023-11-19T07:58:10;95943.69;;;9.95;99.76
77207;BME280;66190;50.708;7.906;2023-11-19T08:00:35;95944.72;;;9.94;99.57
77207;BME280;66190;50.708;7.906;2023-11-19T08:03:01;95944.72;;;9.94;99.64
77207;BME280;66190;50.708;7.906;2023-11-19T08:05:26;95943.28;;;9.92;99.27
77207;BME280;66190;50.708;7.906;2023-11-19T08:07:52;95942.06;;;9.88;99.37
77207;BME280;66190;50.708;7.906;2023-11-19T08:10:19;95940.59;;;9.92;99.35
77207;BME280;66190;50.708;7.906;2023-11-19T08:12:44;95941.41;;;9.92;98.29
77207;BME280;66190;50.708;7.906;2023-11-19T08:15:10;95936.03;;;9.92;97.68
77207;BME280;66190;50.708;7.906;2023-11-19T08:17:36;95936.66;;;9.94;96.33
77207;BME280;66190;50.708;7.906;2023-11-19T08:20:01;95946.16;;;9.97;95.48
77207;BME280;66190;50.708;7.906;2023-11-19T08:22:26;95929.19;;;10.03;94.92
77207;BME280;66190;50.708;7.906;2023-11-19T08:24:52;95931.66;;;10.04;93.96
77207;BME280;66190;50.708;7.906;2023-11-19T08:27:17;95934.78;;;10.01;93.66
77207;BME280;66190;50.708;7.906;2023-11-19T08:29:43;95935.38;;;10.03;94.32
77207;BME280;66190;50.708;7.906;2023-11-19T08:32:08;95927.97;;;9.99;94.41
77207;BME280;66190;50.708;7.906;2023-11-19T08:34:33;95928.59;;;9.94;94.76
77207;BME280;66190;50.708;7.906;2023-11-19T08:36:59;95933.97;;;9.94;94.71
77207;BME280;66190;50.708;7.906;2023-11-19T08:39:25;95937.28;;;9.90;95.71
77207;BME280;66190;50.708;7.906;2023-11-19T08:41:50;95936.28;;;9.84;95.77
77207;BME280;66190;50.708;7.906;2023-11-19T08:44:16;95948.44;;;9.87;95.33
77207;BME280;66190;50.708;7.906;2023-11-19T08:46:49;95943.47;;;9.90;94.94
77207;BME280;66190;50.708;7.906;2023-11-19T08:49:15;95950.53;;;9.91;95.11
77207;BME280;66190;50.708;7.906;2023-11-19T08:51:40;95939.13;;;9.96;95.21
77207;BME280;66190;50.708;7.906;2023-11-19T08:54:06;95942.00;;;10.07;94.96
77207;BME280;66190;50.708;7.906;2023-11-19T08:56:32;95942.81;;;10.08;95.61
77207;BME280;66190;50.708;7.906;2023-11-19T08:58:59;95939.13;;;10.02;95.17
77207;BME280;66190;50.708;7.906;2023-11-19T09:01:25;95955.44;;;10.14;94.41
77207;BME280;66190;50.708;7.906;2023-11-19T09:03:51;95964.53;;;10.19;93.27
77207;BME280;66190;50.708;7.906;2023-11-19T09:06:17;95964.94;;;10.23;93.46
77207;BME280;66190;50.708;7.906;2023-11-19T09:08:42;95963.44;;;10.34;92.06
77207;BME280;66190;50.708;7.906;2023-11-19T09:11:08;95974.56;;;10.44;92.66
77207;BME280;66190;50.708;7.906;2023-11-19T09:13:35;95978.50;;;10.41;92.65
77207;BME280;66190;50.708;7.906;2023-11-19T09:16:00;95986.78;;;10.40;90.44
77207;BME280;66190;50.708;7.906;2023-11-19T09:18:29;95996.91;;;10.38;90.71
77207;BME280;66190;50.708;7.906;2023-11-19T09:20:54;95990.34;;;10.34;90.24
77207;BME280;66190;50.708;7.906;2023-11-19T09:23:20;95995.28;;;10.37;89.69
77207;BME280;66190;50.708;7.906;2023-11-19T09:25:45;95985.75;;;10.34;89.98
77207;BME280;66190;50.708;7.906;2023-11-19T09:28:11;95984.97;;;10.34;91.25
77207;BME280;66190;50.708;7.906;2023-11-19T09:30:36;95994.22;;;10.38;90.28
77207;BME280;66190;50.708;7.906;2023-11-19T09:33:01;95995.50;;;10.35;90.26
77207;BME280;66190;50.708;7.906;2023-11-19T09:35:27;95999.00;;;10.36;88.86
77207;BME280;66190;50.708;7.906;2023-11-19T09:37:52;96001.91;;;10.41;89.11
77207;BME280;66190;50.708;7.906;2023-11-19T09:40:18;96001.06;;;10.40;89.09
77207;BME280;66190;50.708;7.906;2023-11-19T09:42:44;95993.03;;;10.34;89.53
77207;BME280;66190;50.708;7.906;2023-11-19T09:45:15;96002.75;;;10.28;87.08
77207;BME280;66190;50.708;7.906;2023-11-19T09:47:45;96000.50;;;10.25;86.17
77207;BME280;66190;50.708;7.906;2023-11-19T09:50:18;96000.91;;;10.28;87.54
77207;BME280;66190;50.708;7.906;2023-11-19T09:52:48;95991.31;;;10.39;86.69
77207;BME280;66190;50.708;7.906;2023-11-19T09:55:25;95992.94;;;10.53;85.55
77207;BME280;66190;50.708;7.906;2023-11-19T09:57:52;95995.41;;;10.61;84.94
77207;BME280;66190;50.708;7.906;2023-11-19T10:00:19;95998.22;;;10.73;85.52
77207;BME280;66190;50.708;7.906;2023-11-19T10:02:45;95993.91;;;10.72;83.46
77207;BME280;66190;50.708;7.906;2023-11-19T10:05:12;95980.00;;;10.75;84.56
77207;BME280;66190;50.708;7.906;2023-11-19T10:07:39;95988.50;;;10.72;83.36
77207;BME280;66190;50.708;7.906;2023-11-19T10:10:05;95996.81;;;10.64;84.05
77207;BME280;66190;50.708;7.906;2023-11-19T10:12:31;95975.72;;;10.61;82.94
77207;BME280;66190;50.708;7.906;2023-11-19T10:14:58;95988.53;;;10.65;83.09
77207;BME280;66190;50.708;7.906;2023-11-19T10:17:33;95975.06;;;10.65;83.69
77207;BME280;66190;50.708;7.906;2023-11-19T10:19:58;95987.69;;;10.71;83.72
77207;BME280;66190;50.708;7.906;2023-11-19T10:22:24;95984.38;;;10.69;83.67
77207;BME280;66190;50.708;7.906;2023-11-19T10:24:50;95982.13;;;10.66;83.93
77207;BME280;66190;50.708;7.906;2023-11-19T10:27:15;95979.66;;;10.65;82.36
77207;BME280;66190;50.708;7.906;2023-11-19T10:29:45;95973.22;;;10.66;82.40
77207;BME280;66190;50.708;7.906;2023-11-19T10:32:12;95988.88;;;10.82;83.20
77207;BME280;66190;50.708;7.906;2023-11-19T10:34:39;95965.25;;;10.84;81.43
77207;BME280;66190;50.708;7.906;2023-11-19T10:37:07;95977.78;;;11.03;80.50
77207;BME280;66190;50.708;7.906;2023-11-19T10:39:52;95969.69;;;11.03;80.22
77207;BME280;66190;50.708;7.906;2023-11-19T10:42:21;95975.31;;;11.01;81.39
77207;BME280;66190;50.708;7.906;2023-11-19T10:44:46;95959.00;;;10.90;80.42
77207;BME280;66190;50.708;7.906;2023-11-19T10:47:14;95985.69;;;10.91;80.41
77207;BME280;66190;50.708;7.906;2023-11-19T10:49:40;95982.81;;;10.93;79.99
77207;BME280;66190;50.708;7.906;2023-11-19T10:52:08;95965.22;;;10.90;79.98
77207;BME280;66190;50.708;7.906;2023-11-19T10:54:34;95951.75;;;10.90;80.94
77207;BME280;66190;50.708;7.906;2023-11-19T10:57:01;95962.03;;;11.00;82.39
77207;BME280;66190;50.708;7.906;2023-11-19T10:59:31;95958.94;;;10.96;81.96
77207;BME280;66190;50.708;7.906;2023-11-19T11:02:02;95953.22;;;10.93;79.89
77207;BME280;66190;50.708;7.906;2023-11-19T11:04:33;95964.38;;;10.90;79.33
77207;BME280;66190;50.708;7.906;2023-11-19T11:07:01;95962.91;;;10.94;81.04
77207;BME280;66190;50.708;7.906;2023-11-19T11:09:27;95962.75;;;10.89;80.39
77207;BME280;66190;50.708;7.906;2023-11-19T11:11:54;95956.31;;;10.90;81.01
77207;BME280;66190;50.708;7.906;2023-11-19T11:14:21;95946.59;;;10.89;79.81
77207;BME280;66190;50.708;7.906;2023-11-19T11:16:48;95951.16;;;10.88;80.08
77207;BME280;66190;50.708;7.906;2023-11-19T11:19:16;95962.31;;;10.92;79.15
77207;BME280;66190;50.708;7.906;2023-11-19T11:21:44;95957.88;;;11.04;80.45
77207;BME280;66190;50.708;7.906;2023-11-19T11:27:52;95957.66;;;11.05;78.15
77207;BME280;66190;50.708;7.906;2023-11-19T11:30:44;95965.09;;;11.10;78.28
77207;BME280;66190;50.708;7.906;2023-11-19T11:33:32;95961.97;;;11.13;78.49
77207;BME280;66190;50.708;7.906;2023-11-19T11:36:22;95950.88;;;11.27;78.85
77207;BME280;66190;50.708;7.906;2023-11-19T11:38:48;95944.72;;;11.20;77.21
77207;BME280;66190;50.708;7.906;2023-11-19T11:43:45;95946.84;;;11.12;78.97
77207;BME280;66190;50.708;7.906;2023-11-19T11:49:03;95947.59;;;11.25;78.32
77207;BME280;66190;50.708;7.906;2023-11-19T11:54:10;95954.75;;;11.31;78.47
77207;BME280;66190;50.708;7.906;2023-11-19T11:56:39;95941.69;;;11.35;77.34
77207;BME280;66190;50.708;7.906;2023-11-19T11:59:08;95925.28;;;11.43;77.30
77207;BME280;66190;50.708;7.906;2023-11-19T12:02:00;95920.81;;;11.55;76.26
77207;BME280;66190;50.708;7.906;2023-11-19T12:04:29;95926.91;;;11.44;76.07
77207;BME280;66190;50.708;7.906;2023-11-19T12:07:08;95923.28;;;11.32;76.72
77207;BME280;66190;50.708;7.906;2023-11-19T12:09:36;95920.44;;;11.27;77.19
77207;BME280;66190;50.708;7.906;2023-11-19T12:20:03;95893.22;;;11.10;77.27
77207;BME280;66190;50.708;7.906;2023-11-19T12:22:31;95895.50;;;11.07;78.34
77207;BME280;66190;50.708;7.906;2023-11-19T12:24:58;95907.19;;;11.01;80.09
77207;BME280;66190;50.708;7.906;2023-11-19T12:27:24;95923.00;;;10.84;81.87
77207;BME280;66190;50.708;7.906;2023-11-19T12:29:49;95925.13;;;10.76;84.20
77207;BME280;66190;50.708;7.906;2023-11-19T12:32:15;95919.50;;;10.46;85.04
77207;BME280;66190;50.708;7.906;2023-11-19T12:34:41;95919.19;;;10.29;87.49
77207;BME280;66190;50.708;7.906;2023-11-19T12:37:07;95934.16;;;10.06;88.58
77207;BME280;66190;50.708;7.906;2023-11-19T12:39:35;95907.28;;;10.12;91.09
77207;BME280;66190;50.708;7.906;2023-11-19T12:42:00;95917.00;;;9.94;91.54
77207;BME280;66190;50.708;7.906;2023-11-19T12:44:26;95918.28;;;9.91;91.84
77207;BME280;66190;50.708;7.906;2023-11-19T12:47:07;95917.91;;;9.81;93.98
77207;BME280;66190;50.708;7.906;2023-11-19T12:49:33;95920.38;;;9.70;95.06
77207;BME280;66190;50.708;7.906;2023-11-19T12:51:59;95919.75;;;9.68;96.77
77207;BME280;66190;50.708;7.906;2023-11-19T12:54:37;95919.38;;;9.64;97.88
77207;BME280;66190;50.708;7.906;2023-11-19T12:57:04;95888.78;;;10.29;96.45
77207;BME280;66190;50.708;7.906;2023-11-19T12:59:30;95889.31;;;10.82;91.25
77207;BME280;66190;50.708;7.906;2023-11-19T13:01:59;95886.78;;;10.56;91.96
77207;BME280;66190;50.708;7.906;2023-11-19T13:04:29;95891.50;;;10.22;94.02
77207;BME280;66190;50.708;7.906;2023-11-19T13:06:59;95884.97;;;9.92;95.32
77207;BME280;66190;50.708;7.906;2023-11-19T13:09:26;95874.72;;;9.76;96.33
77207;BME280;66190;50.708;7.906;2023-11-19T13:11:54;95880.09;;;9.70;97.25
77207;BME280;66190;50.708;7.906;2023-11-19T13:14:20;95885.50;;;9.63;97.70
77207;BME280;66190;50.708;7.906;2023-11-19T13:16:46;95879.28;;;9.63;98.15